createdAt,value
2022-10-21T00:02:15.305Z,9.63
2022-10-21T00:04:43.148Z,12.00
2022-10-21T00:07:11.579Z,12.02
2022-10-21T00:09:39.536Z,13.10
2022-10-21T00:12:07.435Z,9.68
2022-10-21T00:14:35.413Z,10.73
2022-10-21T00:17:03.557Z,14.82
2022-10-21T00:19:32.805Z,9.07
2022-10-21T00:22:00.724Z,9.27
2022-10-21T00:24:28.617Z,11.50
2022-10-21T00:26:56.593Z,12.13
2022-10-21T00:29:24.610Z,9.27
2022-10-21T00:31:54.726Z,9.40
2022-10-21T00:34:25.913Z,12.45
2022-10-21T00:36:58.091Z,12.48
2022-10-21T00:39:28.794Z,10.70
2022-10-21T00:41:56.875Z,13.02
2022-10-21T00:44:26.785Z,10.00
2022-10-21T00:47:00.043Z,12.50
2022-10-21T00:49:37.189Z,13.18
2022-10-21T00:52:10.687Z,11.52
2022-10-21T00:54:40.016Z,10.38
2022-10-21T00:57:09.752Z,11.23
2022-10-21T00:59:42.142Z,11.35
2022-10-21T01:02:10.083Z,11.45
2022-10-21T01:04:38.448Z,9.15
2022-10-21T01:07:07.916Z,9.82
2022-10-21T01:09:35.974Z,10.25
2022-10-21T01:12:05.447Z,10.57
2022-10-21T01:14:54.123Z,12.40
2022-10-21T01:17:43.997Z,9.25
2022-10-21T01:20:55.565Z,9.63
2022-10-21T01:24:04.025Z,11.68
2022-10-21T01:27:00.314Z,12.27
2022-10-21T01:30:09.602Z,10.52
2022-10-21T01:32:52.473Z,11.82
2022-10-21T01:35:23.427Z,9.05
2022-10-21T01:38:00.913Z,10.75
2022-10-21T01:40:33.659Z,10.05
2022-10-21T01:43:06.971Z,10.70
2022-10-21T01:45:39.101Z,12.75
2022-10-21T01:48:11.790Z,12.63
2022-10-21T01:50:45.033Z,10.48
2022-10-21T01:53:16.927Z,8.77
2022-10-21T01:55:47.776Z,9.43
2022-10-21T01:58:19.829Z,10.85
2022-10-21T02:00:48.936Z,10.50
2022-10-21T02:03:24.028Z,9.27
2022-10-21T02:05:51.971Z,10.23
2022-10-21T02:08:20.267Z,9.43
2022-10-21T02:10:51.088Z,10.65
2022-10-21T02:13:25.801Z,8.70
2022-10-21T02:15:57.369Z,9.00
2022-10-21T02:18:27.726Z,8.80
2022-10-21T02:20:58.532Z,8.32
2022-10-21T02:23:43.768Z,9.43
2022-10-21T02:26:12.025Z,8.88
2022-10-21T02:31:28.971Z,9.05
2022-10-21T02:34:06.334Z,6.85
2022-10-21T02:36:44.154Z,7.45
2022-10-21T02:39:19.636Z,9.73
2022-10-21T02:41:51.185Z,8.80
2022-10-21T02:44:19.230Z,8.30
2022-10-21T02:46:49.081Z,8.30
2022-10-21T02:49:18.353Z,6.53
2022-10-21T02:51:46.956Z,10.00
2022-10-21T02:54:15.065Z,7.45
2022-10-21T02:56:43.457Z,9.52
2022-10-21T02:59:11.838Z,7.63
2022-10-21T03:01:39.809Z,8.20
2022-10-21T03:04:07.804Z,6.70
2022-10-21T03:06:37.124Z,6.90
2022-10-21T03:09:06.081Z,5.63
2022-10-21T03:11:34.074Z,5.75
2022-10-21T03:14:02.013Z,5.57
2022-10-21T03:16:29.921Z,8.20
2022-10-21T03:18:57.993Z,6.82
2022-10-21T03:21:26.150Z,6.43
2022-10-21T03:23:55.371Z,7.65
2022-10-21T03:26:23.409Z,6.60
2022-10-21T03:28:51.429Z,5.93
2022-10-21T03:31:19.362Z,6.85
2022-10-21T03:33:47.455Z,8.75
2022-10-21T03:36:15.418Z,7.03
2022-10-21T03:38:43.296Z,5.50
2022-10-21T03:41:12.948Z,7.65
2022-10-21T03:43:41.025Z,7.82
2022-10-21T03:46:09.034Z,8.35
2022-10-21T03:48:36.907Z,7.97
2022-10-21T03:51:05.123Z,5.32
2022-10-21T03:53:44.984Z,6.60
2022-10-21T03:56:14.904Z,9.00
2022-10-21T03:58:43.363Z,10.65
2022-10-21T04:01:13.851Z,8.30
2022-10-21T04:03:42.935Z,6.03
2022-10-21T04:06:10.799Z,6.95
2022-10-21T04:08:38.768Z,7.35
2022-10-21T04:11:06.914Z,9.63
2022-10-21T04:13:36.861Z,6.93
2022-10-21T04:16:07.788Z,5.28
2022-10-21T04:18:35.913Z,7.45
2022-10-21T04:21:03.856Z,6.93
2022-10-21T04:23:31.726Z,5.78
2022-10-21T04:25:59.713Z,8.18
2022-10-21T04:28:27.754Z,6.93
2022-10-21T04:30:57.050Z,6.80
2022-10-21T04:33:25.008Z,6.82
2022-10-21T04:35:54.717Z,8.93
2022-10-21T04:38:22.812Z,6.47
2022-10-21T04:40:56.690Z,8.07
2022-10-21T04:43:24.821Z,5.68
2022-10-21T04:45:52.719Z,5.82
2022-10-21T04:48:22.457Z,7.97
2022-10-21T04:50:50.646Z,7.20
2022-10-21T04:53:18.669Z,7.70
2022-10-21T04:55:46.741Z,8.57
2022-10-21T04:58:18.238Z,6.53
2022-10-21T05:00:50.527Z,4.63
2022-10-21T05:03:19.185Z,6.55
2022-10-21T05:05:49.987Z,6.43
2022-10-21T05:08:18.057Z,8.18
2022-10-21T05:10:45.969Z,4.93
2022-10-21T05:13:14.325Z,3.92
2022-10-21T05:15:42.620Z,9.60
2022-10-21T05:18:10.707Z,7.25
2022-10-21T05:20:38.722Z,7.72
2022-10-21T05:23:07.866Z,6.07
2022-10-21T05:25:35.737Z,6.93
2022-10-21T05:28:03.712Z,7.90
2022-10-21T05:30:31.549Z,6.30
2022-10-21T05:32:59.635Z,7.57
2022-10-21T05:35:27.582Z,6.97
2022-10-21T05:37:55.386Z,7.60
2022-10-21T05:40:25.095Z,7.30
2022-10-21T05:42:52.936Z,7.18
2022-10-21T05:45:21.074Z,7.47
2022-10-21T05:47:49.151Z,7.47
2022-10-21T05:50:17.354Z,7.60
2022-10-21T05:52:45.197Z,10.95
2022-10-21T05:55:13.481Z,7.57
2022-10-21T05:57:42.930Z,6.72
2022-10-21T06:00:12.642Z,7.03
2022-10-21T06:02:40.989Z,7.07
2022-10-21T06:05:09.389Z,8.63
2022-10-21T06:07:37.672Z,6.22
2022-10-21T06:10:06.726Z,5.78
2022-10-21T06:12:34.603Z,6.40
2022-10-21T06:15:03.869Z,9.38
2022-10-21T06:17:31.829Z,8.25
2022-10-21T06:20:00.222Z,6.03
2022-10-21T06:22:28.127Z,6.65
2022-10-21T06:24:56.109Z,6.40
2022-10-21T06:27:24.206Z,7.35
2022-10-21T06:29:52.262Z,5.78
2022-10-21T06:32:21.578Z,5.15
2022-10-21T06:34:49.521Z,6.80
2022-10-21T06:37:17.467Z,6.65
2022-10-21T06:39:45.437Z,7.50
2022-10-21T06:42:15.221Z,8.00
2022-10-21T06:44:48.255Z,9.68
2022-10-21T06:47:17.129Z,6.88
2022-10-21T06:49:46.354Z,7.05
2022-10-21T06:52:14.357Z,9.90
2022-10-21T06:54:42.850Z,5.20
2022-10-21T06:57:10.728Z,7.32
2022-10-21T06:59:38.721Z,7.57
2022-10-21T07:02:06.858Z,7.60
2022-10-21T07:04:34.751Z,8.07
2022-10-21T07:07:04.314Z,6.82
2022-10-21T07:09:32.318Z,6.38
2022-10-21T07:12:02.002Z,6.38
2022-10-21T07:14:30.082Z,6.70
2022-10-21T07:16:58.088Z,8.23
2022-10-21T07:19:25.959Z,10.00
2022-10-21T07:21:54.041Z,8.98
2022-10-21T07:24:23.261Z,9.68
2022-10-21T07:26:51.631Z,10.40
2022-10-21T07:29:19.965Z,6.72
2022-10-21T07:31:48.167Z,10.02
2022-10-21T07:34:16.221Z,8.70
2022-10-21T07:36:47.886Z,14.20
2022-10-21T07:39:18.209Z,8.45
2022-10-21T07:41:50.837Z,5.75
2022-10-21T07:44:19.960Z,7.00
2022-10-21T07:46:49.404Z,8.25
2022-10-21T07:49:18.806Z,7.32
2022-10-21T07:51:47.407Z,10.30
2022-10-21T07:54:15.720Z,6.07
2022-10-21T07:56:45.637Z,7.38
2022-10-21T07:59:15.625Z,7.45
2022-10-21T08:04:17.551Z,10.50
2022-10-21T08:06:46.463Z,7.88
2022-10-21T08:09:15.142Z,8.98
2022-10-21T08:11:43.618Z,8.45
2022-10-21T08:14:12.839Z,8.02
2022-10-21T08:16:43.103Z,9.57
2022-10-21T08:19:18.969Z,7.18
2022-10-21T08:21:47.150Z,8.75
2022-10-21T08:24:15.096Z,6.88
2022-10-21T08:26:43.257Z,10.43
2022-10-21T08:29:11.585Z,8.15
2022-10-21T08:31:41.790Z,5.70
2022-10-21T08:34:10.632Z,6.43
2022-10-21T08:36:39.082Z,5.95
2022-10-21T08:39:07.552Z,12.13
2022-10-21T08:41:54.100Z,7.63
2022-10-21T08:44:30.912Z,8.57
2022-10-21T08:47:06.204Z,6.57
2022-10-21T08:49:43.410Z,5.22
2022-10-21T08:52:15.520Z,9.98
2022-10-21T08:54:47.782Z,6.22
2022-10-21T08:57:15.862Z,6.13
2022-10-21T08:59:43.839Z,4.68
2022-10-21T09:02:29.179Z,9.40
2022-10-21T09:05:22.651Z,4.45
2022-10-21T09:08:02.477Z,5.47
2022-10-21T09:10:40.705Z,5.78
2022-10-21T09:13:16.556Z,5.60
2022-10-21T09:15:55.988Z,6.82
2022-10-21T09:18:38.233Z,7.75
2022-10-21T09:21:14.134Z,8.23
2022-10-21T09:23:52.474Z,5.07
2022-10-21T09:26:37.117Z,4.82
2022-10-21T09:29:28.926Z,5.35
2022-10-21T09:32:02.532Z,4.55
2022-10-21T09:34:46.162Z,5.13
2022-10-21T09:37:25.336Z,7.38
2022-10-21T09:40:02.384Z,4.80
2022-10-21T09:42:46.239Z,5.13
2022-10-21T09:45:25.702Z,5.60
2022-10-21T09:47:58.742Z,6.38
2022-10-21T09:50:29.801Z,6.35
2022-10-21T09:53:18.256Z,5.03
2022-10-21T09:55:56.115Z,4.25
2022-10-21T09:58:27.469Z,4.70
2022-10-21T10:00:55.966Z,5.97
2022-10-21T10:03:35.654Z,5.78
2022-10-21T10:06:09.086Z,12.32
2022-10-21T10:08:40.491Z,7.47
2022-10-21T10:11:18.123Z,5.43
2022-10-21T10:13:47.650Z,6.95
2022-10-21T10:16:19.511Z,7.55
2022-10-21T10:18:47.499Z,7.10
2022-10-21T10:21:18.421Z,4.25
2022-10-21T10:23:48.376Z,6.72
2022-10-21T10:26:22.946Z,5.45
2022-10-21T10:28:54.081Z,3.78
2022-10-21T10:31:31.659Z,5.07
2022-10-21T10:34:03.511Z,4.13
2022-10-21T10:36:34.594Z,6.22
2022-10-21T10:39:03.910Z,5.18
2022-10-21T10:41:37.326Z,5.95
2022-10-21T10:44:13.052Z,5.32
2022-10-21T10:46:41.740Z,6.63
2022-10-21T10:49:22.441Z,4.78
2022-10-21T10:52:05.648Z,5.32
2022-10-21T10:54:34.161Z,6.90
2022-10-21T10:57:05.291Z,4.97
2022-10-21T10:59:36.750Z,4.53
2022-10-21T11:02:15.995Z,5.63
2022-10-21T11:04:48.423Z,6.85
2022-10-21T11:07:23.314Z,3.08
2022-10-21T11:09:53.124Z,5.38
2022-10-21T11:12:26.416Z,3.85
2022-10-21T11:14:56.061Z,4.28
2022-10-21T11:17:30.718Z,4.10
2022-10-21T11:20:04.584Z,2.83
2022-10-21T11:22:42.438Z,3.35
2022-10-21T11:25:20.021Z,7.38
2022-10-21T11:27:57.605Z,7.50
2022-10-21T11:30:31.759Z,6.28
2022-10-21T11:33:04.914Z,3.97
2022-10-21T11:35:43.314Z,5.25
2022-10-21T11:38:28.000Z,5.75
2022-10-21T11:41:01.753Z,3.20
2022-10-21T11:43:33.762Z,4.57
2022-10-21T11:46:05.934Z,2.97
2022-10-21T11:48:43.316Z,2.20
2022-10-21T11:51:17.516Z,3.78
2022-10-21T11:53:56.207Z,3.92
2022-10-21T11:56:30.434Z,2.42
2022-10-21T11:59:05.682Z,2.13
2022-10-21T12:01:38.524Z,2.80
2022-10-21T12:04:24.952Z,2.30
2022-10-21T12:07:02.730Z,3.40
2022-10-21T12:09:32.604Z,4.68
2022-10-21T12:12:05.570Z,3.42
2022-10-21T12:14:35.741Z,1.10
2022-10-21T12:17:18.921Z,2.85
2022-10-21T12:19:48.831Z,6.50
2022-10-21T12:22:17.193Z,4.32
2022-10-21T12:24:48.137Z,1.65
2022-10-21T12:27:21.176Z,1.55
2022-10-21T12:29:54.258Z,2.45
2022-10-21T12:32:27.261Z,2.40
2022-10-21T12:34:56.012Z,2.88
2022-10-21T12:37:43.069Z,3.08
2022-10-21T12:40:12.907Z,4.15
2022-10-21T12:42:46.612Z,1.73
2022-10-21T12:45:27.571Z,2.50
2022-10-21T12:47:55.904Z,4.28
2022-10-21T12:50:29.899Z,1.73
2022-10-21T12:53:06.107Z,2.17
2022-10-21T12:55:40.191Z,0.80
2022-10-21T12:58:18.727Z,1.52
2022-10-21T13:00:52.531Z,1.45
2022-10-21T13:03:21.629Z,1.58
2022-10-21T13:06:01.994Z,4.97
2022-10-21T13:08:38.684Z,2.22
2022-10-21T13:11:14.326Z,4.38
2022-10-21T13:13:44.403Z,1.70
2022-10-21T13:16:43.416Z,2.45
2022-10-21T13:19:30.596Z,1.30
2022-10-21T13:22:02.675Z,4.43
2022-10-21T13:24:40.644Z,1.23
2022-10-21T13:27:24.192Z,1.10
2022-10-21T13:29:54.459Z,2.50
2022-10-21T13:32:28.172Z,1.35
2022-10-21T13:34:58.485Z,7.68
2022-10-21T13:37:29.115Z,3.25
2022-10-21T13:40:01.530Z,1.40
2022-10-21T13:42:33.495Z,2.70
2022-10-21T13:45:05.013Z,1.65
2022-10-21T13:47:34.133Z,4.32
2022-10-21T13:50:06.370Z,1.70
2022-10-21T13:52:34.737Z,1.23
2022-10-21T13:55:03.738Z,2.45
2022-10-21T13:57:33.512Z,3.55
2022-10-21T14:00:03.650Z,2.97
2022-10-21T14:02:36.100Z,2.55
2022-10-21T14:05:04.449Z,2.38
2022-10-21T14:07:37.066Z,2.22
2022-10-21T14:10:08.185Z,2.28
2022-10-21T14:12:41.956Z,1.90
2022-10-21T14:15:14.981Z,1.88
2022-10-21T14:17:46.108Z,1.50
2022-10-21T14:20:16.591Z,3.10
2022-10-21T14:22:51.749Z,1.85
2022-10-21T14:25:25.031Z,1.30
2022-10-21T14:27:53.465Z,1.73
2022-10-21T14:30:24.540Z,1.98
2022-10-21T14:32:59.372Z,1.30
2022-10-21T14:35:31.995Z,1.35
2022-10-21T14:38:04.098Z,2.40
2022-10-21T14:40:45.941Z,1.33
2022-10-21T14:43:19.999Z,2.10
2022-10-21T14:45:50.858Z,1.27
2022-10-21T14:48:23.747Z,2.03
2022-10-21T14:50:54.644Z,2.40
2022-10-21T14:53:24.304Z,3.83
2022-10-21T14:55:56.077Z,2.22
2022-10-21T14:58:25.437Z,2.47
2022-10-21T15:00:58.446Z,1.45
2022-10-21T15:03:39.641Z,2.00
2022-10-21T15:06:15.033Z,1.48
2022-10-21T15:08:44.836Z,4.60
2022-10-21T15:11:33.002Z,2.28
2022-10-21T15:14:23.823Z,2.60
2022-10-21T15:16:54.875Z,2.83
2022-10-21T15:19:24.617Z,3.25
2022-10-21T15:21:54.458Z,1.52
2022-10-21T15:24:25.113Z,3.25
2022-10-21T15:26:57.818Z,2.70
2022-10-21T15:29:28.375Z,0.55
2022-10-21T15:32:00.579Z,2.58
2022-10-21T15:34:29.145Z,4.47
2022-10-21T15:36:57.341Z,1.40
2022-10-21T15:39:26.521Z,0.63
2022-10-21T15:41:56.411Z,1.73
2022-10-21T15:44:27.333Z,4.15
2022-10-21T15:47:00.463Z,2.55
2022-10-21T15:49:40.294Z,0.98
2022-10-21T15:52:09.365Z,1.33
2022-10-21T15:54:37.642Z,0.88
2022-10-21T15:57:13.979Z,2.20
2022-10-21T15:59:42.541Z,1.70
2022-10-21T16:02:16.731Z,2.88
2022-10-21T16:04:47.325Z,2.88
2022-10-21T16:07:19.083Z,0.77
2022-10-21T16:09:47.568Z,0.77
2022-10-21T16:12:17.656Z,1.25
2022-10-21T16:14:45.833Z,2.53
2022-10-21T16:17:14.375Z,4.90
2022-10-21T16:19:43.589Z,1.45
2022-10-21T16:22:17.268Z,1.20
2022-10-21T16:24:45.692Z,1.58
2022-10-21T16:27:31.246Z,3.17
2022-10-21T16:30:11.845Z,1.75
2022-10-21T16:32:40.634Z,2.17
2022-10-21T16:35:10.591Z,3.85
2022-10-21T16:37:46.447Z,3.90
2022-10-21T16:40:18.072Z,3.08
2022-10-21T16:42:52.209Z,5.90
2022-10-21T16:45:21.162Z,3.88
2022-10-21T16:47:52.689Z,3.25
2022-10-21T16:50:24.497Z,1.10
2022-10-21T16:52:54.253Z,3.38
2022-10-21T16:55:22.531Z,1.77
2022-10-21T16:57:50.829Z,1.63
2022-10-21T17:00:22.111Z,6.35
2022-10-21T17:02:51.391Z,1.65
2022-10-21T17:05:19.746Z,2.53
2022-10-21T17:07:48.082Z,2.80
2022-10-21T17:10:18.090Z,2.30
2022-10-21T17:12:46.281Z,2.97
2022-10-21T17:15:18.043Z,3.63
2022-10-21T17:17:46.202Z,2.10
2022-10-21T17:20:15.644Z,1.80
2022-10-21T17:22:43.853Z,2.42
2022-10-21T17:25:17.435Z,2.53
2022-10-21T17:27:46.974Z,3.80
2022-10-21T17:30:15.233Z,6.85
2022-10-21T17:32:43.636Z,3.38
2022-10-21T17:35:18.476Z,2.45
2022-10-21T17:37:47.762Z,1.83
2022-10-21T17:40:16.983Z,3.15
2022-10-21T17:42:46.975Z,5.40
2022-10-21T17:45:17.026Z,2.88
2022-10-21T17:47:45.796Z,2.40
2022-10-21T17:50:15.043Z,2.83
2022-10-21T17:52:43.617Z,4.05
2022-10-21T17:55:13.387Z,3.60
2022-10-21T17:57:41.686Z,2.22
2022-10-21T18:00:17.526Z,3.58
2022-10-21T18:02:45.943Z,3.45
2022-10-21T18:05:14.150Z,4.40
2022-10-21T18:07:44.495Z,4.20
2022-10-21T18:10:13.058Z,2.65
2022-10-21T18:12:42.970Z,3.63
2022-10-21T18:15:12.996Z,2.45
2022-10-21T18:17:42.214Z,2.58
2022-10-21T18:20:12.645Z,2.80
2022-10-21T18:22:41.207Z,3.25
2022-10-21T18:25:10.537Z,1.77
2022-10-21T18:27:40.084Z,3.67
2022-10-21T18:30:11.749Z,5.53
2022-10-21T18:32:41.932Z,2.28
2022-10-21T18:35:12.810Z,3.65
2022-10-21T18:37:41.852Z,2.20
2022-10-21T18:40:11.626Z,3.72
2022-10-21T18:42:48.221Z,2.78
2022-10-21T18:45:16.573Z,2.90
2022-10-21T18:47:47.482Z,2.50
2022-10-21T18:50:16.354Z,3.13
2022-10-21T18:52:44.934Z,6.53
2022-10-21T18:55:13.497Z,2.25
2022-10-21T18:57:49.549Z,3.08
2022-10-21T19:00:18.109Z,4.68
2022-10-21T19:02:47.816Z,3.13
2022-10-21T19:05:16.100Z,2.72
2022-10-21T19:07:44.398Z,1.88
2022-10-21T19:10:13.900Z,1.98
2022-10-21T19:12:42.168Z,2.08
2022-10-21T19:15:11.008Z,1.92
2022-10-21T19:17:40.979Z,3.33
2022-10-21T19:20:11.789Z,2.78
2022-10-21T19:22:42.067Z,1.85
2022-10-21T19:25:10.718Z,1.98
2022-10-21T19:27:39.249Z,1.92
2022-10-21T19:30:08.240Z,3.70
2022-10-21T19:32:36.805Z,3.00
2022-10-21T19:35:05.394Z,1.25
2022-10-21T19:37:35.205Z,2.45
2022-10-21T19:40:03.642Z,2.85
2022-10-21T19:42:33.233Z,3.00
2022-10-21T19:45:01.504Z,2.90
2022-10-21T19:47:31.173Z,3.08
2022-10-21T19:49:59.480Z,2.33
2022-10-21T19:52:27.771Z,1.55
2022-10-21T19:54:57.379Z,3.33
2022-10-21T19:57:25.682Z,4.78
2022-10-21T19:59:54.221Z,2.78
2022-10-21T20:02:22.676Z,4.68
2022-10-21T20:04:50.921Z,1.90
2022-10-21T20:07:19.406Z,1.92
2022-10-21T20:09:47.694Z,2.47
2022-10-21T20:12:17.336Z,3.80
2022-10-21T20:14:45.821Z,3.55
2022-10-21T20:17:17.475Z,2.55
2022-10-21T20:19:48.364Z,4.70
2022-10-21T20:22:16.622Z,3.42
2022-10-21T20:24:46.341Z,3.83
2022-10-21T20:27:15.129Z,5.60
2022-10-21T20:29:45.037Z,4.47
2022-10-21T20:32:13.673Z,2.85
2022-10-21T20:34:43.467Z,1.90
2022-10-21T20:37:11.757Z,4.32
2022-10-21T20:39:43.067Z,5.45
2022-10-21T20:42:11.802Z,3.20
2022-10-21T20:44:40.254Z,5.38
2022-10-21T20:47:10.002Z,2.70
2022-10-21T20:49:38.718Z,3.95
2022-10-21T20:52:06.914Z,3.70
2022-10-21T20:54:35.193Z,4.57
2022-10-21T20:57:03.521Z,8.18
2022-10-21T20:59:31.760Z,5.28
2022-10-21T21:02:00.079Z,3.97
2022-10-21T21:04:29.726Z,3.05
2022-10-21T21:06:57.980Z,4.28
2022-10-21T21:09:50.318Z,3.92
2022-10-21T21:12:17.006Z,3.05
2022-10-21T21:14:47.372Z,2.88
2022-10-21T21:17:15.766Z,3.58
2022-10-21T21:19:45.723Z,2.58
2022-10-21T21:22:13.969Z,5.07
2022-10-21T21:24:43.404Z,3.03
2022-10-21T21:27:13.530Z,2.92
2022-10-21T21:29:41.733Z,4.70
2022-10-21T21:32:10.173Z,3.00
2022-10-21T21:34:40.728Z,3.97
2022-10-21T21:37:10.569Z,3.08
2022-10-21T21:39:38.828Z,5.10
2022-10-21T21:42:07.094Z,2.67
2022-10-21T21:44:35.534Z,2.53
2022-10-21T21:47:03.790Z,2.80
2022-10-21T21:49:31.992Z,5.75
2022-10-21T21:52:00.252Z,12.27
2022-10-21T21:54:29.863Z,3.65
2022-10-21T21:57:23.187Z,3.95
2022-10-21T21:59:47.102Z,2.65
2022-10-21T22:02:15.430Z,3.20
2022-10-21T22:04:44.807Z,3.25
2022-10-21T22:07:13.272Z,4.63
2022-10-21T22:09:42.866Z,3.83
2022-10-21T22:12:14.784Z,3.95
2022-10-21T22:14:43.672Z,3.25
2022-10-21T22:17:11.943Z,5.25
2022-10-21T22:19:40.162Z,4.53
2022-10-21T22:22:08.818Z,3.45
2022-10-21T22:24:39.326Z,2.95
2022-10-21T22:27:08.839Z,2.45
2022-10-21T22:29:37.160Z,2.35
2022-10-21T22:32:05.968Z,2.92
2022-10-21T22:34:34.241Z,3.65
2022-10-21T22:37:02.716Z,4.97
2022-10-21T22:39:30.913Z,5.07
2022-10-21T22:41:59.119Z,3.08
2022-10-21T22:44:28.986Z,2.63
2022-10-21T22:46:57.159Z,3.47
2022-10-21T22:49:25.413Z,5.93
2022-10-21T22:51:54.331Z,3.65
2022-10-21T22:54:46.440Z,5.18
2022-10-21T22:57:11.696Z,2.38
2022-10-21T22:59:43.982Z,2.88
2022-10-21T23:02:12.737Z,3.17
2022-10-21T23:04:40.963Z,4.13
2022-10-21T23:07:09.617Z,3.28
2022-10-21T23:09:37.939Z,3.35
2022-10-21T23:12:06.464Z,3.13
2022-10-21T23:14:34.731Z,2.28
2022-10-21T23:17:04.435Z,3.15
2022-10-21T23:19:32.686Z,2.22
2022-10-21T23:22:00.923Z,4.10
2022-10-21T23:24:29.233Z,3.20
2022-10-21T23:27:00.523Z,2.60
2022-10-21T23:29:32.031Z,2.03
2022-10-21T23:32:00.400Z,5.03
2022-10-21T23:34:30.062Z,4.65
2022-10-21T23:36:58.413Z,3.92
2022-10-21T23:39:26.652Z,3.05
2022-10-21T23:41:55.061Z,3.25
2022-10-21T23:44:23.286Z,4.20
2022-10-21T23:46:51.643Z,2.88
2022-10-21T23:49:19.918Z,3.97
2022-10-21T23:51:49.463Z,4.32
2022-10-21T23:54:17.857Z,4.50
2022-10-21T23:56:46.455Z,3.17
2022-10-21T23:59:14.781Z,3.85
